Time;durP1;ratioP1;P1;durP2;ratioP2;P2;SDS_P1;SDS_P2;PMS_P1;PMS_P2;Temp;Humidity;BMP_temperature;BMP_pressure;BME280_temperature;BME280_humidity;BME280_pressure;Samples;Min_cycle;Max_cycle;Signal;HPM_P1;HPM_P2
2022/06/03 00:02:58;;;;;;;1.70;1.60;;;19.20;66.60;19.60;96646.00;;;;5055369;28;20280;-80
2022/06/03 00:06:05;;;;;;;2.53;1.60;;;19.10;66.50;19.50;96633.00;;;;5038884;28;20283;-80
2022/06/03 00:09:07;;;;;;;2.03;1.80;;;19.10;66.50;19.50;96637.00;;;;5030356;28;20216;-81
2022/06/03 00:12:28;;;;;;;3.47;1.80;;;19.10;66.70;19.40;96628.00;;;;5054016;28;20319;-81
2022/06/03 00:15:13;;;;;;;1.87;1.77;;;19.00;66.60;19.40;96634.00;;;;5027234;28;20730;-80
2022/06/03 00:18:14;;;;;;;1.93;1.83;;;19.00;67.30;19.40;96631.00;;;;5053043;28;20270;-80
2022/06/03 00:20:58;;;;;;;1.67;1.50;;;19.00;66.70;19.30;96629.00;;;;5035443;28;20310;-81
2022/06/03 00:24:12;;;;;;;1.57;1.47;;;18.90;66.70;19.30;96623.00;;;;5042336;28;20224;-80
2022/06/03 00:27:07;;;;;;;2.17;1.60;;;18.90;67.30;19.30;96625.00;;;;5046641;28;20647;-81
2022/06/03 00:30:02;;;;;;;2.40;2.20;;;18.90;66.70;19.20;96629.00;;;;5053368;28;20225;-81
2022/06/03 00:33:20;;;;;;;1.60;1.50;;;18.80;66.80;19.20;96625.00;;;;5053278;28;20244;-81
2022/06/03 00:36:09;;;;;;;1.70;1.60;;;18.80;67.00;19.20;96625.00;;;;5044711;28;20203;-80
2022/06/03 00:38:56;;;;;;;1.93;1.53;;;18.80;67.00;19.20;96630.00;;;;5053156;28;20690;-81
2022/06/03 00:41:46;;;;;;;2.20;1.80;;;18.70;67.10;19.10;96635.00;;;;5056702;28;20185;-81
2022/06/03 00:44:42;;;;;;;2.20;1.57;;;18.70;67.40;19.10;96623.00;;;;5052736;28;20193;-81
2022/06/03 00:47:28;;;;;;;1.73;1.63;;;18.70;67.40;19.10;96618.00;;;;5048225;28;20273;-82
2022/06/03 00:50:44;;;;;;;1.53;1.43;;;18.70;67.50;19.10;96623.00;;;;5123617;22;20224;-81
2022/06/03 00:54:04;;;;;;;1.90;1.67;;;18.70;67.70;19.00;96606.00;;;;5075274;28;20184;-82
2022/06/03 00:57:31;;;;;;;1.83;1.73;;;18.60;67.50;19.00;96606.00;;;;5087558;28;20207;-82
2022/06/03 01:00:25;;;;;;;1.70;1.60;;;18.60;67.40;19.00;96597.00;;;;5054187;28;20193;-81
2022/06/03 01:03:17;;;;;;;1.80;1.70;;;18.60;67.40;18.90;96590.00;;;;5054491;28;20184;-82
2022/06/03 01:06:29;;;;;;;1.97;1.57;;;18.50;67.60;18.90;96580.00;;;;5058242;28;20712;-82
2022/06/03 01:09:30;;;;;;;2.73;2.00;;;18.50;67.60;18.90;96581.00;;;;5076090;28;20216;-82
2022/06/03 01:12:24;;;;;;;2.70;1.40;;;18.50;67.80;18.80;96586.00;;;;5059410;28;20219;-82
2022/06/03 01:15:17;;;;;;;2.27;1.90;;;18.40;67.60;18.80;96594.00;;;;5072259;28;20573;-82
2022/06/03 01:17:59;;;;;;;1.47;1.47;;;18.40;67.60;18.80;96586.00;;;;5077837;28;20296;-82
2022/06/03 01:21:00;;;;;;;2.33;1.63;;;18.30;67.50;18.70;96588.00;;;;5063700;28;20242;-82
2022/06/03 01:27:40;;;;;;;1.80;1.70;;;18.30;67.80;18.70;96588.00;;;;5173552;27;20595;-81
2022/06/03 01:33:58;;;;;;;1.90;1.80;;;18.20;68.30;18.60;96591.00;;;;5069032;28;20223;-81
2022/06/03 01:37:04;;;;;;;1.77;1.67;;;18.20;68.40;18.60;96587.00;;;;5120800;28;20197;-81
2022/06/03 01:40:13;;;;;;;1.50;1.40;;;18.20;68.50;18.60;96589.00;;;;5127399;27;20605;-81
2022/06/03 01:43:22;;;;;;;1.70;1.60;;;18.20;68.40;18.60;96592.00;;;;5124899;27;20524;-81
2022/06/03 01:46:28;;;;;;;1.60;1.50;;;18.20;68.50;18.60;96592.00;;;;5126595;28;20366;-81
2022/06/03 01:49:46;;;;;;;1.80;1.70;;;18.10;68.70;18.50;96601.00;;;;5130544;28;20214;-81
2022/06/03 01:53:01;;;;;;;1.70;1.60;;;18.10;68.70;18.50;96587.00;;;;5111647;28;20537;-81
2022/06/03 01:56:25;;;;;;;1.80;1.53;;;18.10;68.70;18.50;96583.00;;;;5117568;28;20285;-81
2022/06/03 02:00:02;;;;;;;1.73;1.63;;;18.10;68.80;18.40;96579.00;;;;5117880;28;20214;-81
2022/06/03 02:03:18;;;;;;;1.73;1.63;;;18.10;68.80;18.40;96574.00;;;;5132737;27;20246;-81
2022/06/03 02:06:57;;;;;;;1.67;1.57;;;18.00;68.70;18.40;96583.00;;;;5123571;27;20222;-82
2022/06/03 02:10:20;;;;;;;1.63;1.53;;;18.00;68.80;18.40;96575.00;;;;5038680;28;20228;-82
2022/06/03 02:13:38;;;;;;;2.10;1.40;;;18.00;68.70;18.30;96567.00;;;;5132931;27;20225;-81
2022/06/03 02:16:51;;;;;;;1.73;1.27;;;18.00;68.80;18.30;96568.00;;;;5132301;28;20202;-82
2022/06/03 02:20:02;;;;;;;1.60;1.50;;;17.90;68.80;18.30;96571.00;;;;5119899;28;20213;-81
2022/06/03 02:23:35;;;;;;;1.73;1.63;;;17.90;68.80;18.20;96577.00;;;;5132267;27;20289;-80
2022/06/03 02:27:00;;;;;;;1.57;1.47;;;17.90;68.70;18.20;96577.00;;;;5132560;28;20267;-81
2022/06/03 02:30:31;;;;;;;1.50;1.40;;;17.90;68.70;18.20;96576.00;;;;5068450;28;20200;-81
2022/06/03 02:33:40;;;;;;;2.03;1.90;;;17.80;68.80;18.20;96571.00;;;;5100375;28;20193;-81
2022/06/03 02:37:07;;;;;;;1.70;1.60;;;17.80;68.80;18.10;96582.00;;;;5119408;27;20196;-80
2022/06/03 02:40:39;;;;;;;1.63;1.53;;;17.70;68.80;18.10;96577.00;;;;5124323;27;20209;-81
2022/06/03 02:43:37;;;;;;;1.90;1.80;;;17.70;69.10;18.10;96577.00;;;;5013835;27;20258;-81
2022/06/03 02:47:03;;;;;;;1.93;1.73;;;17.70;69.00;18.00;96593.00;;;;5106891;28;20237;-82
2022/06/03 02:50:10;;;;;;;1.70;1.57;;;17.70;69.30;18.00;96589.00;;;;5084696;28;20203;-81
2022/06/03 02:53:42;;;;;;;3.13;2.07;;;17.60;69.20;18.00;96591.00;;;;5118215;28;20269;-81
2022/06/03 02:56:56;;;;;;;2.10;1.63;;;17.60;69.30;17.90;96582.00;;;;5105880;28;20198;-81
2022/06/03 02:59:49;;;;;;;1.87;1.77;;;17.50;69.20;17.90;96581.00;;;;5096653;28;20636;-81
2022/06/03 03:02:47;;;;;;;1.80;1.70;;;17.50;69.20;17.80;96573.00;;;;5105054;28;20300;-81
2022/06/03 03:05:42;;;;;;;2.20;1.90;;;17.50;69.50;17.80;96572.00;;;;5121727;27;20224;-81
2022/06/03 03:09:13;;;;;;;2.50;1.97;;;17.40;69.40;17.80;96573.00;;;;5106881;28;20251;-81
2022/06/03 03:12:28;;;;;;;2.10;2.00;;;17.40;69.80;17.80;96566.00;;;;5069655;28;20198;-81
2022/06/03 03:15:38;;;;;;;2.17;1.97;;;17.40;69.80;17.70;96568.00;;;;5091269;28;20252;-81
2022/06/03 03:18:56;;;;;;;2.03;1.93;;;17.30;69.90;17.70;96575.00;;;;5117209;28;20678;-82
2022/06/03 03:22:00;;;;;;;2.50;2.30;;;17.30;70.00;17.70;96567.00;;;;5118807;28;20195;-82
2022/06/03 03:25:22;;;;;;;2.23;2.13;;;17.30;70.10;17.70;96572.00;;;;5100093;28;20224;-81
2022/06/03 03:28:50;;;;;;;2.23;2.13;;;17.30;70.30;17.70;96575.00;;;;5117120;28;20223;-80
2022/06/03 03:32:04;;;;;;;2.50;2.27;;;17.30;70.20;17.70;96580.00;;;;5034062;28;20202;-81
2022/06/03 03:35:19;;;;;;;2.50;2.30;;;17.30;70.30;17.70;96579.00;;;;5083875;28;20202;-80
2022/06/03 03:38:40;;;;;;;2.20;2.10;;;17.30;70.30;17.70;96598.00;;;;5096924;28;20215;-80
2022/06/03 03:42:10;;;;;;;3.47;2.10;;;17.30;70.30;17.70;96597.00;;;;5106277;28;20674;-81
2022/06/03 03:45:47;;;;;;;2.17;2.00;;;17.30;70.20;17.70;96595.00;;;;5082557;28;20198;-81
2022/06/03 03:49:18;;;;;;;2.20;2.10;;;17.30;70.40;17.70;96599.00;;;;5075476;27;20815;-82
2022/06/03 03:52:30;;;;;;;1.80;1.67;;;17.30;70.50;17.80;96601.00;;;;5107935;28;20202;-81
2022/06/03 03:55:54;;;;;;;2.90;2.03;;;17.30;70.50;17.80;96599.00;;;;5106440;28;20842;-81
2022/06/03 03:59:45;;;;;;;2.27;2.17;;;17.40;70.80;17.80;96591.00;;;;5099752;28;20617;-81
2022/06/03 04:02:58;;;;;;;2.00;1.90;;;17.40;71.00;17.80;96591.00;;;;5107829;28;20313;-81
2022/06/03 04:06:10;;;;;;;2.00;1.90;;;17.40;71.00;17.90;96594.00;;;;5106111;28;20678;-81
2022/06/03 04:09:40;;;;;;;3.13;2.10;;;17.40;71.00;17.90;96594.00;;;;5120218;27;20217;-81
2022/06/03 04:12:42;;;;;;;2.27;1.97;;;17.50;71.20;17.90;96592.00;;;;5117140;28;20202;-81
2022/06/03 04:16:10;;;;;;;2.27;2.17;;;17.50;71.20;18.00;96592.00;;;;5116935;28;20546;-81
2022/06/03 04:19:26;;;;;;;2.70;2.50;;;17.50;71.50;18.00;96586.00;;;;5093085;28;20645;-81
2022/06/03 04:22:22;;;;;;;2.30;2.20;;;17.50;71.60;18.10;96589.00;;;;5112627;28;20194;-86
2022/06/03 04:25:42;;;;;;;2.50;2.40;;;17.60;71.60;18.10;96585.00;;;;5096579;28;20210;-85
2022/06/03 04:29:34;;;;;;;2.37;2.17;;;17.60;71.70;18.20;96596.00;;;;5111669;28;20214;-83
2022/06/03 04:33:00;;;;;;;2.30;2.20;;;17.70;71.90;18.30;96596.00;;;;5114121;27;20194;-84
2022/06/03 04:36:24;;;;;;;2.20;2.10;;;17.70;72.00;18.40;96596.00;;;;5108693;28;20191;-83
2022/06/03 04:39:51;;;;;;;2.20;2.10;;;17.80;71.90;18.40;96602.00;;;;5091173;28;20218;-82
2022/06/03 04:43:42;;;;;;;1.90;1.80;;;17.80;72.00;18.50;96595.00;;;;5107172;27;20199;-83
2022/06/03 04:47:14;;;;;;;2.47;2.27;;;17.80;72.10;18.60;96592.00;;;;5092178;28;20208;-83
2022/06/03 04:50:40;;;;;;;2.27;2.07;;;17.90;72.30;18.60;96591.00;;;;5114877;28;20194;-83
2022/06/03 04:54:06;;;;;;;2.47;2.27;;;18.00;72.60;18.70;96589.00;;;;5109394;28;20183;-83
2022/06/03 04:57:36;;;;;;;2.27;2.17;;;18.10;72.70;18.90;96595.00;;;;5114047;28;20199;-83
2022/06/03 05:00:43;;;;;;;2.50;2.30;;;18.20;72.70;18.90;96594.00;;;;5113295;28;20650;-82
2022/06/03 05:04:06;;;;;;;3.03;2.30;;;18.20;72.50;19.00;96592.00;;;;5103584;28;20190;-82
2022/06/03 05:07:28;;;;;;;2.00;1.90;;;18.30;72.80;19.10;96606.00;;;;5103551;28;20222;-83
2022/06/03 05:11:24;;;;;;;2.23;2.03;;;18.40;72.60;19.20;96602.00;;;;5112555;28;20198;-84
2022/06/03 05:14:46;;;;;;;2.37;2.03;;;18.50;73.10;19.20;96607.00;;;;5015768;28;20193;-83
2022/06/03 05:18:10;;;;;;;2.50;2.30;;;18.50;72.80;19.20;96605.00;;;;5023107;28;20205;-84
2022/06/03 05:22:00;;;;;;;2.10;2.00;;;18.60;72.80;19.30;96598.00;;;;5097790;27;20202;-83
2022/06/03 05:25:40;;;;;;;2.50;2.30;;;18.60;72.50;19.30;96599.00;;;;5007497;28;20683;-84
2022/06/03 05:29:04;;;;;;;2.33;2.23;;;18.70;72.60;19.30;96596.00;;;;5014872;28;20217;-83
2022/06/03 05:32:51;;;;;;;2.03;1.93;;;18.70;73.00;19.40;96590.00;;;;5111663;28;20259;-83
2022/06/03 05:36:11;;;;;;;2.40;2.20;;;18.80;72.40;19.40;96601.00;;;;5007628;28;20202;-83
2022/06/03 05:39:29;;;;;;;2.43;2.23;;;18.80;72.50;19.50;96585.00;;;;5111868;28;20649;-84
2022/06/03 05:42:27;;;;;;;2.40;2.30;;;18.90;72.10;19.50;96583.00;;;;5107304;28;20278;-84
2022/06/03 05:45:45;;;;;;;2.30;2.20;;;18.90;71.80;19.50;96568.00;;;;5112530;28;20198;-84
2022/06/03 05:48:25;;;;;;;2.27;2.17;;;18.90;72.20;19.60;96580.00;;;;5087686;28;20679;-83
2022/06/03 05:51:22;;;;;;;2.77;2.57;;;19.00;72.20;19.60;96591.00;;;;5106438;28;20666;-83
2022/06/03 05:54:07;;;;;;;2.40;2.17;;;19.00;72.30;19.70;96585.00;;;;5108048;28;20194;-83
2022/06/03 05:56:59;;;;;;;2.47;2.27;;;19.10;72.60;19.70;96580.00;;;;5111124;28;20293;-83
2022/06/03 06:00:00;;;;;;;2.87;2.57;;;19.10;72.60;19.80;96589.00;;;;5108735;28;20701;-84
2022/06/03 06:02:39;;;;;;;2.43;2.33;;;19.10;72.90;19.80;96586.00;;;;5107907;28;20195;-84
2022/06/03 06:05:37;;;;;;;2.10;2.00;;;19.20;72.60;19.90;96594.00;;;;5110549;28;20277;-83
2022/06/03 06:08:27;;;;;;;3.50;2.37;;;19.30;72.60;19.90;96591.00;;;;5105024;28;20795;-83
2022/06/03 06:11:07;;;;;;;2.80;2.60;;;19.30;72.60;20.00;96594.00;;;;5107926;27;20207;-83
2022/06/03 06:14:27;;;;;;;2.93;2.80;;;19.30;72.70;20.10;96593.00;;;;5119982;27;20402;-83
2022/06/03 06:17:07;;;;;;;3.23;2.93;;;19.40;72.60;20.10;96584.00;;;;5069800;28;20195;-83
2022/06/03 06:19:50;;;;;;;3.00;2.80;;;19.50;72.60;20.20;96588.00;;;;5110353;27;20408;-82
2022/06/03 06:22:29;;;;;;;2.90;2.70;;;19.50;72.60;20.30;96582.00;;;;5103408;28;20196;-82
2022/06/03 06:25:10;;;;;;;2.83;2.60;;;19.60;72.80;20.40;96574.00;;;;5115534;28;20578;-82
2022/06/03 06:28:06;;;;;;;3.40;3.20;;;19.60;72.90;20.50;96562.00;;;;5116071;28;20301;-82
2022/06/03 06:31:16;;;;;;;3.20;3.00;;;19.70;73.20;20.60;96575.00;;;;5111158;27;20556;-82
2022/06/03 06:37:38;;;;;;;3.07;2.83;;;20.00;74.20;21.10;96596.00;;;;5049164;28;20229;-80
2022/06/03 06:40:23;;;;;;;3.20;3.00;;;20.20;74.30;21.30;96604.00;;;;5048890;28;20197;-81
2022/06/03 06:43:07;;;;;;;3.00;2.80;;;20.40;74.70;21.50;96605.00;;;;5047003;28;20196;-81
2022/06/03 06:45:55;;;;;;;3.03;2.83;;;20.50;74.80;21.70;96612.00;;;;5035303;28;20264;-80
2022/06/03 06:48:45;;;;;;;2.90;2.70;;;20.70;74.90;21.90;96603.00;;;;5071913;22;20251;-83
2022/06/03 06:51:46;;;;;;;4.33;2.80;;;20.90;75.00;22.10;96603.00;;;;5087933;28;20255;-83
2022/06/03 06:54:27;;;;;;;3.73;3.00;;;21.10;74.70;22.30;96611.00;;;;5094052;28;20218;-83
2022/06/03 06:57:01;;;;;;;2.83;2.63;;;21.20;74.00;22.40;96605.00;;;;5098271;28;20217;-83
2022/06/03 06:59:39;;;;;;;3.10;2.57;;;21.30;73.40;22.50;96609.00;;;;5093130;28;20272;-82
2022/06/03 07:02:14;;;;;;;2.80;2.60;;;21.50;72.90;22.60;96608.00;;;;5098029;28;20200;-83
2022/06/03 07:04:53;;;;;;;3.07;2.87;;;21.60;73.00;22.60;96615.00;;;;5106358;28;20195;-83
2022/06/03 07:07:30;;;;;;;2.60;2.40;;;21.70;72.70;22.80;96615.00;;;;5110631;28;20243;-83
2022/06/03 07:10:03;;;;;;;2.90;2.70;;;21.80;72.90;22.90;96607.00;;;;5091559;28;20234;-83
2022/06/03 07:12:39;;;;;;;2.53;2.40;;;21.90;72.90;23.00;96605.00;;;;5104173;28;20202;-83
2022/06/03 07:15:13;;;;;;;2.53;2.33;;;22.00;73.00;23.20;96590.00;;;;5087087;28;20295;-83
2022/06/03 07:20:54;;;;;;;2.80;2.60;;;22.20;72.80;23.60;96561.00;;;;5099333;28;20203;-82
2022/06/03 07:23:34;;;;;;;2.27;2.07;;;22.40;73.00;23.80;96557.00;;;;5107177;28;20207;-83
2022/06/03 07:26:10;;;;;;;2.20;2.10;;;22.60;73.20;24.00;96554.00;;;;5100403;28;20253;-83
2022/06/03 07:28:52;;;;;;;1.93;1.83;;;22.70;73.20;24.20;96563.00;;;;5092597;28;20777;-83
2022/06/03 07:31:27;;;;;;;2.60;2.30;;;22.90;72.90;24.40;96561.00;;;;5095689;28;20189;-83
2022/06/03 07:34:02;;;;;;;1.97;1.87;;;23.10;72.30;24.60;96569.00;;;;5093525;28;20560;-83
2022/06/03 07:36:43;;;;;;;1.73;1.63;;;23.30;72.90;24.70;96566.00;;;;5082134;28;20301;-83
2022/06/03 07:39:43;;;;;;;1.83;1.73;;;23.40;71.80;24.90;96567.00;;;;5081026;28;20252;-83
2022/06/03 07:42:21;;;;;;;2.30;2.10;;;23.60;71.10;25.10;96563.00;;;;5092669;28;20257;-82
2022/06/03 07:45:29;;;;;;;3.17;2.13;;;23.80;71.00;25.20;96567.00;;;;5094607;28;20198;-82
2022/06/03 07:48:00;;;;;;;2.03;1.80;;;23.90;70.80;25.50;96565.00;;;;5092146;28;20215;-82
2022/06/03 07:50:31;;;;;;;1.93;1.83;;;24.10;70.70;25.70;96571.00;;;;5089460;28;20230;-83
2022/06/03 07:53:08;;;;;;;1.77;1.67;;;24.30;70.40;25.90;96560.00;;;;5090948;28;20696;-83
2022/06/03 07:55:37;;;;;;;1.40;1.40;;;24.50;70.10;26.10;96562.00;;;;5096749;28;20274;-83
2022/06/03 07:58:09;;;;;;;2.87;1.70;;;24.60;69.70;26.40;96562.00;;;;5078602;28;20584;-83
2022/06/03 08:00:39;;;;;;;1.63;1.53;;;24.80;69.00;26.60;96565.00;;;;5083093;28;20274;-83
2022/06/03 08:03:14;;;;;;;2.00;1.70;;;25.00;68.60;26.80;96571.00;;;;5092250;28;20217;-83
2022/06/03 08:05:45;;;;;;;2.17;2.07;;;25.20;68.50;27.10;96569.00;;;;5092104;28;20636;-82
2022/06/03 08:11:22;;;;;;;2.10;1.40;;;25.50;67.90;27.60;96562.00;;;;5092275;28;20313;-82
2022/06/03 08:13:52;;;;;;;1.60;1.50;;;25.70;67.30;27.90;96568.00;;;;5096226;28;20226;-82
2022/06/03 08:16:29;;;;;;;1.90;1.80;;;25.90;67.30;28.20;96566.00;;;;5089567;28;20622;-82
2022/06/03 08:19:00;;;;;;;1.70;1.60;;;26.10;66.70;28.50;96571.00;;;;5095496;28;20251;-82
2022/06/03 08:21:33;;;;;;;1.73;1.40;;;26.30;65.70;28.90;96575.00;;;;5096444;28;20282;-82
2022/06/03 08:24:03;;;;;;;1.40;1.40;;;26.50;66.00;29.40;96574.00;;;;5087375;28;20710;-82
2022/06/03 08:26:32;;;;;;;1.75;1.65;;;26.80;66.10;29.80;96575.00;;;;5093636;28;20750;-82
2022/06/03 08:29:14;;;;;;;2.05;1.35;;;27.00;65.90;30.20;96573.00;;;;5097114;28;20215;-81
2022/06/03 08:31:44;;;;;;;1.27;1.27;;;27.20;65.40;30.60;96580.00;;;;5093321;28;20202;-82
2022/06/03 08:34:24;;;;;;;2.50;1.58;;;27.50;66.20;30.90;96574.00;;;;5093483;28;20282;-82
2022/06/03 08:36:53;;;;;;;1.25;1.23;;;27.80;64.10;31.20;96573.00;;;;5092785;28;20623;-82
2022/06/03 08:39:26;;;;;;;1.50;1.40;;;28.10;63.70;31.50;96571.00;;;;5087645;28;20298;-81
2022/06/03 08:42:31;;;;;;;1.70;1.60;;;28.30;61.90;31.80;96564.00;;;;5092321;28;20226;-82
2022/06/03 08:45:29;;;;;;;2.65;1.20;;;28.60;61.90;32.10;96569.00;;;;5088109;28;20187;-82
2022/06/03 08:47:59;;;;;;;1.30;1.30;;;28.90;61.90;32.40;96562.00;;;;5095374;28;20696;-82
2022/06/03 08:50:37;;;;;;;1.40;1.30;;;29.10;62.20;32.60;96563.00;;;;5099133;28;20199;-83
2022/06/03 08:53:15;;;;;;;2.35;1.40;;;29.40;61.10;32.90;96565.00;;;;5096472;28;20225;-82
2022/06/03 08:55:48;;;;;;;1.20;1.20;;;29.60;60.50;33.20;96564.00;;;;5098495;28;20215;-83
2022/06/03 08:58:42;;;;;;;1.52;1.42;;;29.90;59.60;33.50;96561.00;;;;5096639;28;20223;-82
2022/06/03 09:01:36;;;;;;;1.15;1.08;;;30.20;58.80;33.90;96556.00;;;;5095921;28;20195;-82
2022/06/03 09:04:18;;;;;;;1.05;1.05;;;30.50;58.60;34.30;96556.00;;;;5084526;28;20195;-82
2022/06/03 09:07:02;;;;;;;1.35;1.25;;;30.70;58.40;34.60;96553.00;;;;5090712;28;20251;-81
2022/06/03 09:09:42;;;;;;;1.25;1.15;;;31.10;56.90;35.00;96549.00;;;;5087987;28;20223;-81
2022/06/03 09:12:19;;;;;;;0.93;0.93;;;31.40;57.10;35.30;96550.00;;;;5083923;28;20204;-82
2022/06/03 09:14:50;;;;;;;1.00;0.90;;;31.70;56.70;35.50;96555.00;;;;5092145;28;20561;-82
2022/06/03 09:17:36;;;;;;;1.52;1.05;;;32.00;56.50;35.80;96546.00;;;;5092443;28;20217;-81
2022/06/03 09:20:11;;;;;;;1.63;0.93;;;32.30;55.40;36.00;96539.00;;;;5098602;28;20626;-82
2022/06/03 09:22:40;;;;;;;2.70;1.13;;;32.60;55.50;36.20;96545.00;;;;5097905;28;20190;-82
2022/06/03 09:25:12;;;;;;;1.00;0.90;;;32.90;55.30;36.40;96539.00;;;;5097690;28;20195;-82
2022/06/03 09:27:43;;;;;;;0.80;0.80;;;33.20;54.40;36.60;96545.00;;;;5096981;28;20203;-82
2022/06/03 09:30:16;;;;;;;0.88;0.80;;;33.60;53.70;36.70;96539.00;;;;5094161;28;20723;-82
2022/06/03 09:32:49;;;;;;;0.70;0.70;;;33.80;53.00;36.90;96542.00;;;;5094485;28;20230;-82
2022/06/03 09:35:21;;;;;;;0.80;0.80;;;34.10;52.10;37.00;96538.00;;;;5092030;28;20199;-81
2022/06/03 09:37:54;;;;;;;0.95;0.95;;;34.40;51.40;37.10;96542.00;;;;5086119;28;20649;-82
2022/06/03 09:40:28;;;;;;;0.95;0.75;;;34.70;51.60;37.20;96533.00;;;;5089462;28;20187;-82
2022/06/03 09:43:04;;;;;;;1.05;1.00;;;35.00;50.50;37.30;96541.00;;;;5094032;28;20600;-82
2022/06/03 09:45:32;;;;;;;0.98;0.98;;;35.30;49.80;37.40;96540.00;;;;5088333;28;20190;-82
2022/06/03 09:48:03;;;;;;;1.35;1.25;;;35.60;49.20;37.60;96539.00;;;;5097317;28;20214;-82
2022/06/03 09:50:31;;;;;;;0.80;0.80;;;35.90;48.90;37.70;96533.00;;;;5090446;28;20679;-82
2022/06/03 09:53:11;;;;;;;0.90;0.90;;;36.20;49.00;37.80;96531.00;;;;5102144;28;20195;-82
2022/06/03 09:55:43;;;;;;;0.63;0.63;;;36.50;47.10;37.90;96527.00;;;;5098643;28;20248;-83
2022/06/03 09:58:26;;;;;;;0.70;0.70;;;36.80;47.10;38.00;96529.00;;;;5094071;28;20222;-83
2022/06/03 10:00:57;;;;;;;1.42;1.00;;;37.00;46.70;38.10;96527.00;;;;5106364;28;20238;-82
2022/06/03 10:03:26;;;;;;;1.85;0.77;;;37.30;46.40;38.10;96527.00;;;;5107754;28;20191;-82
2022/06/03 10:05:59;;;;;;;0.88;0.88;;;37.50;46.00;38.20;96521.00;;;;5101875;28;20204;-82
2022/06/03 10:12:48;;;;;;;0.80;0.80;;;37.70;45.60;38.20;96529.00;;;;5092236;28;20374;-82
2022/06/03 10:14:04;;;;;;;1.52;0.88;;;38.00;45.10;38.20;96516.00;;;;5093427;28;20278;-82
2022/06/03 10:16:33;;;;;;;2.00;0.90;;;38.10;44.80;38.20;96513.00;;;;5100167;28;20218;-83
2022/06/03 10:19:00;;;;;;;0.85;0.85;;;38.20;44.50;38.10;96512.00;;;;5098314;28;20846;-82
2022/06/03 10:21:33;;;;;;;0.90;0.90;;;38.20;44.00;38.10;96513.00;;;;5088870;28;20242;-82
2022/06/03 10:24:04;;;;;;;0.88;0.80;;;38.30;43.90;38.10;96505.00;;;;5101118;28;20187;-82
2022/06/03 10:26:40;;;;;;;0.65;0.65;;;38.40;42.90;38.00;96514.00;;;;5091881;28;20234;-82
2022/06/03 10:29:13;;;;;;;0.70;0.70;;;38.30;42.70;37.90;96516.00;;;;5098913;28;20691;-83
2022/06/03 10:31:40;;;;;;;1.30;0.75;;;38.30;42.40;37.80;96507.00;;;;5100706;28;20183;-83
2022/06/03 10:34:14;;;;;;;0.57;0.57;;;38.20;42.70;37.70;96498.00;;;;5097945;28;20227;-83
2022/06/03 10:36:44;;;;;;;0.70;0.70;;;38.20;42.50;37.60;96492.00;;;;5088574;28;20234;-83
2022/06/03 10:39:17;;;;;;;0.80;0.80;;;38.10;42.20;37.50;96487.00;;;;5099623;28;20218;-83
2022/06/03 10:41:48;;;;;;;0.65;0.65;;;38.10;42.00;37.50;96480.00;;;;5097412;28;20199;-83
2022/06/03 10:44:21;;;;;;;0.80;0.80;;;38.00;42.70;37.40;96474.00;;;;5096410;28;20241;-83
2022/06/03 10:46:57;;;;;;;0.93;0.93;;;37.90;42.50;37.30;96479.00;;;;5098420;28;20207;-83
2022/06/03 10:49:28;;;;;;;0.88;0.70;;;37.80;42.50;37.20;96465.00;;;;5093558;28;20688;-83
2022/06/03 11:03:08;;;;;;;0.90;0.90;;;36.70;42.50;36.30;96457.00;;;;5087826;28;20194;-84
2022/06/03 11:05:38;;;;;;;1.38;0.80;;;36.30;42.50;36.00;96455.00;;;;5095280;28;20195;-85
2022/06/03 11:08:09;;;;;;;1.15;0.80;;;36.00;43.00;35.80;96445.00;;;;5095508;28;20259;-84
2022/06/03 11:10:41;;;;;;;2.08;0.70;;;35.70;43.50;35.50;96449.00;;;;5087321;28;20559;-85
2022/06/03 11:13:11;;;;;;;1.48;1.02;;;35.40;43.30;35.20;96443.00;;;;5077985;28;20180;-85
2022/06/03 11:15:44;;;;;;;1.95;1.13;;;35.00;44.00;34.90;96452.00;;;;5087448;28;20192;-85
2022/06/03 11:18:18;;;;;;;1.13;0.90;;;34.70;45.00;34.70;96447.00;;;;5095185;28;20215;-84
2022/06/03 11:20:47;;;;;;;0.90;0.90;;;34.40;45.10;34.50;96450.00;;;;5093760;28;20263;-83
2022/06/03 11:23:16;;;;;;;1.27;0.90;;;34.10;45.70;34.30;96457.00;;;;5099396;28;20196;-83
2022/06/03 11:25:47;;;;;;;1.08;1.08;;;33.90;45.90;34.10;96458.00;;;;5094856;28;20274;-81
2022/06/03 11:28:21;;;;;;;1.00;1.00;;;33.70;46.00;34.00;96444.00;;;;5095286;28;20254;-81
2022/06/03 11:30:57;;;;;;;0.80;0.80;;;33.50;46.40;33.90;96435.00;;;;5095102;28;20586;-82
2022/06/03 11:33:30;;;;;;;1.10;1.00;;;33.30;46.70;33.90;96436.00;;;;5095060;28;20283;-83
2022/06/03 11:36:03;;;;;;;0.80;0.80;;;33.20;46.70;33.80;96436.00;;;;5089709;28;20229;-82
2022/06/03 11:38:37;;;;;;;1.55;0.85;;;33.00;47.00;33.70;96431.00;;;;5090490;28;20753;-84
2022/06/03 11:41:11;;;;;;;0.80;0.80;;;32.90;47.50;33.60;96430.00;;;;5094136;28;20218;-85
2022/06/03 11:43:46;;;;;;;1.00;1.00;;;32.80;48.00;33.40;96424.00;;;;5094388;28;20234;-82
2022/06/03 11:46:24;;;;;;;1.13;0.93;;;32.70;47.90;33.30;96421.00;;;;5090149;28;20252;-81
2022/06/03 11:48:53;;;;;;;1.10;1.10;;;32.60;47.70;33.20;96416.00;;;;5094036;28;20283;-82
2022/06/03 11:51:20;;;;;;;0.90;0.90;;;32.40;48.30;33.10;96413.00;;;;5093928;28;20196;-81
2022/06/03 11:53:49;;;;;;;1.48;1.02;;;32.40;48.80;33.00;96420.00;;;;5095623;28;20291;-84
2022/06/03 11:56:22;;;;;;;1.77;1.00;;;32.20;49.40;32.90;96416.00;;;;5093977;28;20254;-84
2022/06/03 11:59:01;;;;;;;1.10;1.00;;;32.10;48.60;32.80;96409.00;;;;5094254;28;20250;-82
2022/06/03 12:01:46;;;;;;;1.00;1.00;;;32.10;48.60;32.70;96415.00;;;;5083106;28;20192;-81
2022/06/03 12:04:37;;;;;;;0.98;0.98;;;32.00;49.00;32.60;96420.00;;;;5094228;28;20223;-81
2022/06/03 12:07:18;;;;;;;1.10;1.00;;;31.90;48.70;32.50;96417.00;;;;5093608;28;20180;-81
2022/06/03 12:09:55;;;;;;;0.88;0.88;;;31.80;48.20;32.50;96422.00;;;;5093292;28;20207;-83
2022/06/03 12:15:49;;;;;;;0.88;0.88;;;31.70;48.50;32.40;96418.00;;;;5093275;28;20328;-81
2022/06/03 12:18:58;;;;;;;0.85;0.85;;;31.60;48.90;32.40;96415.00;;;;5063136;28;20219;-80
2022/06/03 12:22:15;;;;;;;0.80;0.80;;;31.60;49.20;32.50;96419.00;;;;5093393;28;20211;-84
2022/06/03 12:24:49;;;;;;;1.00;1.00;;;31.60;49.10;32.50;96411.00;;;;5078738;28;20187;-80
2022/06/03 12:27:31;;;;;;;0.70;0.70;;;31.60;50.00;32.60;96414.00;;;;5093066;28;20234;-82
2022/06/03 12:30:34;;;;;;;1.10;1.10;;;31.60;50.10;32.60;96415.00;;;;5091804;28;20191;-81
2022/06/03 12:33:08;;;;;;;0.90;0.90;;;31.60;50.30;32.70;96412.00;;;;5092971;28;20836;-80
2022/06/03 12:36:05;;;;;;;0.80;0.80;;;31.60;50.20;32.70;96413.00;;;;5092273;28;20655;-84
2022/06/03 12:39:14;;;;;;;0.93;0.93;;;31.60;49.50;32.70;96413.00;;;;5072081;28;20216;-81
2022/06/03 12:42:13;;;;;;;1.00;1.00;;;31.70;49.90;32.80;96409.00;;;;5080422;28;20191;-83
2022/06/03 12:45:04;;;;;;;0.90;0.90;;;31.70;50.40;32.80;96409.00;;;;5080766;28;20192;-82
2022/06/03 12:47:50;;;;;;;1.05;0.90;;;31.70;50.10;32.80;96403.00;;;;5091366;28;20219;-81
2022/06/03 12:50:35;;;;;;;1.00;1.00;;;31.80;50.70;32.80;96406.00;;;;5088553;28;20192;-80
2022/06/03 12:53:41;;;;;;;0.80;0.77;;;31.80;50.20;32.90;96399.00;;;;5073576;28;20216;-81
2022/06/03 12:56:41;;;;;;;1.27;0.88;;;31.80;50.80;32.90;96400.00;;;;5092530;28;20601;-83
2022/06/03 12:59:27;;;;;;;1.00;0.82;;;31.80;49.60;32.90;96389.00;;;;5074191;28;20219;-80
2022/06/03 13:02:14;;;;;;;1.05;0.93;;;31.80;49.40;33.00;96389.00;;;;5090716;28;20617;-84
2022/06/03 13:05:35;;;;;;;1.05;0.90;;;31.80;49.70;33.00;96389.00;;;;5089199;28;20187;-80
2022/06/03 13:08:09;;;;;;;0.85;0.85;;;31.80;50.10;33.00;96382.00;;;;5094517;28;20636;-82
2022/06/03 13:11:01;;;;;;;0.70;0.70;;;31.90;50.40;33.00;96379.00;;;;5103532;28;20696;-80
2022/06/03 13:14:17;;;;;;;2.15;0.80;;;31.90;50.00;32.90;96370.00;;;;5086920;28;20192;-82
2022/06/03 13:16:48;;;;;;;1.05;0.73;;;31.90;50.20;33.00;96374.00;;;;5092215;28;20233;-80
2022/06/03 13:19:44;;;;;;;1.35;0.75;;;31.80;50.60;33.00;96361.00;;;;5093007;28;20621;-80
2022/06/03 13:22:29;;;;;;;1.10;1.10;;;31.90;50.90;33.00;96359.00;;;;5096914;28;20195;-81
2022/06/03 13:25:36;;;;;;;1.65;1.52;;;31.90;50.90;33.00;96349.00;;;;5101468;28;20219;-81
2022/06/03 13:28:33;;;;;;;2.15;1.30;;;31.90;50.80;33.00;96347.00;;;;5085555;28;20223;-82